Weather at Aérodrome de Muret - Lherm

Public forecast

Using degrees Celsius for public forecast. Weather courtesy of forecast.io.

Closest aviation weather report (METAR) to Aérodrome de Muret - Lherm

Report is more than 6 hours old.

Closest report is Toulouse-Francazal (BA 101) Air Base, 7.4 nm (13.6 km) NE. Retrieved 2012/04/27 18:30 UTC (8 years ago):

LFBF 271830Z AUTO 14007KT 100V180 //// // ///////// 16/13 Q1008

Closest aviation forecast (TAF) to Aérodrome de Muret - Lherm

Closest forecast is Toulouse-Blagnac Airport, 11.7 nm (21.6 km) NNE. Retrieved 2020/09/19 12:21 UTC (0 seconds ago):

TAF LFBO 191100Z 1912/2018 12008KT CAVOK BECMG 1916/1918 28008KT SCT030TCU TEMPO 1916/1924 4000 SHRA SCT050CB PROB40 TEMPO 1916/1922 VRB18G30KT 2000 TSRA BKN025CB BECMG 2000/2002 VRB03KT CAVOK PROB30 TEMPO 2002/2006 BKN010 BECMG 2008/2010 29006KT SCT030TCU